Telluride, CO

3:34 AM MDT on October 21, 2014 (GMT -0600)
Telluride Regional | Change Station
CLOSE
Current Station
Airport
Location: Telluride,
Elevation: 9078 ft
Nearby Weather Stations

Elev 9078 ft 37.95 °N, 107.91 °W | Updated 19 minutes ago

Overcast
Overcast
48 °F
Feels Like 48 °F
N
4
Wind Variable Wind from ESE

Today
High -- | Low -- °F
--% Chance of Precip.
Yesterday
High -- | Low -- °F
Precip. -- in
7:25 AM 6:25 PM
Waning Crescent, 6% visible
Pressure 30.30 in
Visibility 10.0 miles
Clouds Scattered Clouds 4500 ft
Mostly Cloudy 5000 ft
Overcast 7000 ft
Dew Point 38 °F
Humidity 69%
Rainfall 0.00 in
Snow Depth 0 in , 0 in , 1 in
UV 0 out of 12
Pollen 1.80 out of 12
Air Quality Not available.
Flu Activity Sporadic
METAR KTEX 210915Z AUTO 11003KT 10SM SCT045 BKN050 OVC070 09/03 A3030 RMK AO2 T00860033

More Conditions Fewer Conditions

Pressure 30.30 in
Visibility 10.0 miles
Clouds Scattered Clouds 4500 ft
Mostly Cloudy 5000 ft
Overcast 7000 ft
Dew Point 38 °F
Humidity 69%
Rainfall 0.00 in
Snow Depth 0 in , 0 in , 1 in
UV 0 out of 12
Pollen 1.80 out of 12
Air Quality Not available.
Flu Activity Sporadic
METAR KTEX 210915Z AUTO 11003KT 10SM SCT045 BKN050 OVC070 09/03 A3030 RMK AO2 T00860033

More Conditions Fewer Conditions

10-Day Weather Forecast

Almanac

Astronomy

Oct. 21, 2014 Rise Set
Actual Time 7:25 AM MDT 6:25 PM MDT
Civil Twilight 6:59 AM MDT 6:52 PM MDT
Nautical Twilight 6:28 AM MDT 7:22 PM MDT
Astronomical Twilight 5:57 AM MDT 7:53 PM MDT
Moon 5:14 AM MDT 5:19 PM MDT
Length of Visible Light 11h 53m
Length of Day
10h 59m
Tomorrow will be 2m 18s shorter.
Waning Crescent, 6% of the Moon is Illuminated
Today
Waning Crescent
Oct 23
New
Oct 30
First Quarter
Nov 6
Full
Nov 14
Last Quarter

Today's Extremes

State Highs State Lows

Community

WunderPhotos

Upload Photos

1,763,619 photos uploaded!

Nearby

Snow Depth

Station Depth Elevation
Red Mountain Pass 0 in 11150 ft
Mineral Creek 0 in 10040 ft
Idarado 0 in 9800 ft
Lizard Head Pass 0 in 10200 ft
El Diente Peak 1 in 10200 ft

Earthquake Activity

City Distance Mag. Time & Date
No recent earthquake activity has been reported nearby.
Minimum magnitude displayed is 2.5.

Coastal Water Temperatures

Place Temperature
No Stations Reporting

Nearby Weather Stations